Ellisgrove, Illinois
Current Conditions -  °F | °C
As of 2:15 PM on Friday 19 Dec 2014 (Local Time) from KSAR Reporting Station
Overcast Overcast  
Wind Chill: 36°   Ceiling: 3300
Heat Index: 36°   Visibility: 10mi
Dew Point: 29°   Wind: 0mph
Humidity: 76%   Direction: NA
Pressure: 30.29"   Gusts: NA
Location:  38.0084°N, 89.9007°W
Report Text: KSAR 192015Z AUTO 00000KT 10SM OVC033 02/M02 A3029 RMK AO2 T00201018
Loading
Personal Weather Stations






























Interactive Weather Map New forecast layout! Learn more

10-Day Weather Forecast

Advertisements
Track Severe Weather on mobile